Hassler — WTEK — position and weather

sailwx.info

Track history (hours):
 
Tides and Currents Weather Stations Pressure Air Temp Water Temp Dewpoint Dewpoint Depression Visibility Wind Speed Wind Dir Waves Ship Positions

Oceanographic research ship Hassler (USA)

Last reported at 2020-Sep-26 00:10 UTC. Time now 2020-Sep-29 06:39 UTC.
Position N 43°27' W 069°27'.

Length 37 m; draft 3.8 m.

MMSI: 369970091.

Date/timePositionNaut miles runAvg speedWind from/ knotsBaromVisibWave heightAir tempDewpointWater temp
2020-Sep-26 00:10N 43°27' W 069°27'60 6.2
2020-Sep-25 14:29N 42°45' W 070°25'181 8.0
2020-Sep-24 15:52N 40°55' W 073°38'411.7
2020-Sep-24 15:29N 40°53' W 073°43'14 9.1
2020-Sep-24 14:00N 40°45' W 073°58'53 8.1
2020-Sep-24 07:30N 39°54' W 073°42'10 9.9
2020-Sep-24 06:28N 39°43' W 073°43'122 6.6
2020-Sep-23 12:00N 39°12' W 076°15'8 7.9
2020-Sep-23 11:00N 39°05' W 076°19'5 9.6
2020-Sep-23 10:30N 39°01' W 076°22'109 9.5
2020-Sep-22 23:00N 37°12' W 076°09'17 2.5
2020-Sep-22 16:10N 36°55' W 076°11'0 0.0
2020-Sep-22 15:52N 36°55' W 076°11'0 0.0
2020-Sep-22 15:28N 36°55' W 076°11'0 0.0
2020-Sep-22 11:58N 36°55' W 076°11'0 0.0
2020-Sep-22 10:55N 36°55' W 076°11'0 0.0
2020-Sep-22 09:58N 36°55' W 076°11'0 0.0
2020-Sep-22 09:25N 36°55' W 076°11'0 0.0
2020-Sep-22 07:49N 36°55' W 076°11'0 0.0
2020-Sep-22 07:07N 36°55' W 076°11'0 0.0
2020-Sep-22 06:55N 36°55' W 076°11'0 0.0
2020-Sep-22 04:55N 36°55' W 076°11'0 0.0
2020-Sep-22 03:43N 36°55' W 076°11'0 0.0
2020-Sep-22 03:22N 36°55' W 076°11'0 0.0
2020-Sep-21 22:58N 36°55' W 076°11'0 0.0
2020-Sep-21 21:58N 36°55' W 076°11'0 0.0
2020-Sep-21 21:16N 36°55' W 076°11'0 0.0
2020-Sep-21 20:22N 36°55' W 076°11'0 0.0
2020-Sep-21 17:25N 36°55' W 076°11'0 0.0
2020-Sep-21 15:55N 36°55' W 076°11'0 0.0
2020-Sep-21 13:43N 36°55' W 076°11'0 0.0
2020-Sep-21 10:28N 36°55' W 076°11'0 0.0
2020-Sep-21 08:28N 36°55' W 076°11'0 0.0
2020-Sep-21 07:28N 36°55' W 076°11'0 0.0
2020-Sep-21 05:22N 36°55' W 076°11'0 0.0
2020-Sep-21 01:28N 36°55' W 076°11'0 0.0
2020-Sep-21 00:19N 36°55' W 076°11'0 0.0
2020-Sep-20 23:22N 36°55' W 076°11'0 0.0
2020-Sep-20 18:55N 36°55' W 076°11'0 0.0
2020-Sep-20 17:52N 36°55' W 076°11'0 0.0
2020-Sep-20 17:19N 36°55' W 076°11'0 0.0
2020-Sep-20 16:52N 36°55' W 076°11'0 0.0
2020-Sep-20 16:25N 36°55' W 076°11'0 0.0
2020-Sep-20 15:58N 36°55' W 076°11'0 0.0
2020-Sep-20 14:16N 36°55' W 076°11'0 0.0
2020-Sep-20 12:25N 36°55' W 076°11'0 0.0
2020-Sep-20 11:58N 36°55' W 076°11'0 0.0
2020-Sep-20 11:19N 36°55' W 076°11'0 0.0
2020-Sep-20 10:28N 36°55' W 076°11'0 0.0
2020-Sep-20 08:25N 36°55' W 076°11'0 0.0
2020-Sep-20 06:58N 36°55' W 076°11'0 0.0
2020-Sep-20 05:58N 36°55' W 076°11'0 0.0
2020-Sep-19 23:58N 36°55' W 076°11'0 0.0
2020-Sep-19 20:25N 36°55' W 076°11'0 0.0
2020-Sep-19 18:58N 36°55' W 076°11'0 0.0
2020-Sep-19 17:28N 36°55' W 076°11'0 0.0
2020-Sep-19 16:28N 36°55' W 076°11'  
Track history (hours):
 
Tides and Currents Weather Stations Pressure Air Temp Water Temp Dewpoint Dewpoint Depression Visibility Wind Speed Wind Dir Waves Ship Positions

Oceanographic research ship Hassler (USA)

Last reported at 2020-Sep-26 00:10 UTC. Time now 2020-Sep-29 06:39 UTC.
Position N 43°27' W 069°27'.

Length 37 m; draft 3.8 m.

MMSI: 369970091.

Date/timePositionNaut miles runAvg speedWind from/ knotsBaromVisibWave heightAir tempDewpointWater temp
2020-Sep-26 00:10N 43°27' W 069°27'60 6.2
2020-Sep-25 14:29N 42°45' W 070°25'181 8.0
2020-Sep-24 15:52N 40°55' W 073°38'411.7
2020-Sep-24 15:29N 40°53' W 073°43'14 9.1
2020-Sep-24 14:00N 40°45' W 073°58'53 8.1
2020-Sep-24 07:30N 39°54' W 073°42'10 9.9
2020-Sep-24 06:28N 39°43' W 073°43'122 6.6
2020-Sep-23 12:00N 39°12' W 076°15'8 7.9
2020-Sep-23 11:00N 39°05' W 076°19'5 9.6
2020-Sep-23 10:30N 39°01' W 076°22'109 9.5
2020-Sep-22 23:00N 37°12' W 076°09'17 2.5
2020-Sep-22 16:10N 36°55' W 076°11'0 0.0
2020-Sep-22 15:52N 36°55' W 076°11'0 0.0
2020-Sep-22 15:28N 36°55' W 076°11'0 0.0
2020-Sep-22 11:58N 36°55' W 076°11'0 0.0
2020-Sep-22 10:55N 36°55' W 076°11'0 0.0
2020-Sep-22 09:58N 36°55' W 076°11'0 0.0
2020-Sep-22 09:25N 36°55' W 076°11'0 0.0
2020-Sep-22 07:49N 36°55' W 076°11'0 0.0
2020-Sep-22 07:07N 36°55' W 076°11'0 0.0
2020-Sep-22 06:55N 36°55' W 076°11'0 0.0
2020-Sep-22 04:55N 36°55' W 076°11'0 0.0
2020-Sep-22 03:43N 36°55' W 076°11'0 0.0
2020-Sep-22 03:22N 36°55' W 076°11'0 0.0
2020-Sep-21 22:58N 36°55' W 076°11'0 0.0
2020-Sep-21 21:58N 36°55' W 076°11'0 0.0
2020-Sep-21 21:16N 36°55' W 076°11'0 0.0
2020-Sep-21 20:22N 36°55' W 076°11'0 0.0
2020-Sep-21 17:25N 36°55' W 076°11'0 0.0
2020-Sep-21 15:55N 36°55' W 076°11'0 0.0
2020-Sep-21 13:43N 36°55' W 076°11'0 0.0
2020-Sep-21 10:28N 36°55' W 076°11'0 0.0
2020-Sep-21 08:28N 36°55' W 076°11'0 0.0
2020-Sep-21 07:28N 36°55' W 076°11'0 0.0
2020-Sep-21 05:22N 36°55' W 076°11'0 0.0
2020-Sep-21 01:28N 36°55' W 076°11'0 0.0
2020-Sep-21 00:19N 36°55' W 076°11'0 0.0
2020-Sep-20 23:22N 36°55' W 076°11'0 0.0
2020-Sep-20 18:55N 36°55' W 076°11'0 0.0
2020-Sep-20 17:52N 36°55' W 076°11'0 0.0
2020-Sep-20 17:19N 36°55' W 076°11'0 0.0
2020-Sep-20 16:52N 36°55' W 076°11'0 0.0
2020-Sep-20 16:25N 36°55' W 076°11'0 0.0
2020-Sep-20 15:58N 36°55' W 076°11'0 0.0
2020-Sep-20 14:16N 36°55' W 076°11'0 0.0
2020-Sep-20 12:25N 36°55' W 076°11'0 0.0
2020-Sep-20 11:58N 36°55' W 076°11'0 0.0
2020-Sep-20 11:19N 36°55' W 076°11'0 0.0
2020-Sep-20 10:28N 36°55' W 076°11'0 0.0
2020-Sep-20 08:25N 36°55' W 076°11'0 0.0
2020-Sep-20 06:58N 36°55' W 076°11'0 0.0
2020-Sep-20 05:58N 36°55' W 076°11'0 0.0
2020-Sep-19 23:58N 36°55' W 076°11'0 0.0
2020-Sep-19 20:25N 36°55' W 076°11'0 0.0
2020-Sep-19 18:58N 36°55' W 076°11'0 0.0
2020-Sep-19 17:28N 36°55' W 076°11'0 0.0
2020-Sep-19 16:28N 36°55' W 076°11'  

Dump ship's entire track history